Va Bene — ZCIP8 — position and weather

sailwx.info

Track history (hours):
 
Tides and Currents Weather Stations Pressure Air Temp Water Temp Dewpoint Dewpoint Depression Visibility Wind Speed Wind Dir Waves Ship Positions

Va Bene

Last reported at 2016-Jun-13 11:33 UTC. Time now 2016-Jun-27 15:05 UTC.
Position N 42°26' E 018°26'.
Warning: this ship's position is 14 days out of date.

Length 50 m; draft 3.6 m.

Type: Pleasure craft. MMSI: 319854000.

Date/timePositionNaut miles runAvg speedWind from/ knotsBaromVisibWave heightAir tempDewpointWater temp
2016-Jun-13 11:33N 42°26' E 018°26'7 7.3
2016-Jun-13 10:33N 42°26' E 018°36'4 3.5
2016-Jun-13 09:33N 42°26' E 018°41'3 3.2
2016-Jun-13 08:33N 42°28' E 018°45'2 0.2
2016-Jun-12 20:33N 42°26' E 018°46'0 0.0
2016-Jun-12 19:33N 42°26' E 018°46'0 0.0
2016-Jun-12 18:33N 42°26' E 018°46'0 0.2
2016-Jun-12 17:31N 42°26' E 018°46'3 0.4
2016-Jun-12 10:22N 42°26' E 018°42'0 0.0
2016-Jun-12 09:31N 42°26' E 018°42'0 0.0
2016-Jun-12 08:31N 42°26' E 018°42'0 0.0
2016-Jun-12 07:31N 42°26' E 018°42'0 0.0
2016-Jun-12 06:31N 42°26' E 018°42'0 0.0
2016-Jun-12 04:34N 42°26' E 018°42'0 0.0
2016-Jun-12 03:31N 42°26' E 018°42'0 0.0
2016-Jun-12 02:31N 42°26' E 018°42'0 0.0
2016-Jun-12 01:31N 42°26' E 018°42'0 0.0
2016-Jun-12 00:31N 42°26' E 018°42'0 0.0
2016-Jun-11 23:31N 42°26' E 018°42'0 0.0
2016-Jun-11 22:31N 42°26' E 018°42'0 0.0
2016-Jun-11 21:31N 42°26' E 018°42'0 0.0
2016-Jun-11 20:31N 42°26' E 018°42'0 0.0
2016-Jun-11 19:34N 42°26' E 018°42'0 0.0
2016-Jun-11 19:01N 42°26' E 018°42'0 0.0
2016-Jun-11 18:31N 42°26' E 018°42'0 0.0
2016-Jun-11 17:31N 42°26' E 018°42'0 0.0
2016-Jun-11 16:31N 42°26' E 018°42'0 0.0
2016-Jun-11 15:31N 42°26' E 018°42'0 0.0
2016-Jun-11 14:31N 42°26' E 018°42'0 0.0
2016-Jun-11 13:34N 42°26' E 018°42'0 0.0
2016-Jun-11 12:31N 42°26' E 018°42'0 0.0
2016-Jun-11 11:31N 42°26' E 018°42'0 0.0
2016-Jun-11 10:31N 42°26' E 018°42'0 0.0
2016-Jun-11 09:31N 42°26' E 018°42'0 0.0
2016-Jun-11 08:31N 42°26' E 018°42'0 0.0
2016-Jun-11 07:31N 42°26' E 018°42'0 0.0
2016-Jun-11 06:31N 42°26' E 018°42'0 0.0
2016-Jun-11 05:34N 42°26' E 018°42'0 0.0
2016-Jun-11 04:31N 42°26' E 018°42'0 0.0
2016-Jun-11 03:31N 42°26' E 018°42'0 0.0
2016-Jun-11 02:31N 42°26' E 018°42'0 0.0
2016-Jun-11 01:31N 42°26' E 018°42'0 0.0
2016-Jun-11 00:28N 42°26' E 018°42'0 0.0
2016-Jun-10 23:34N 42°26' E 018°42'0 0.0
2016-Jun-10 22:31N 42°26' E 018°42'0 0.0
2016-Jun-10 21:31N 42°26' E 018°42'0 0.0
2016-Jun-10 20:31N 42°26' E 018°42'0 0.0
2016-Jun-10 19:31N 42°26' E 018°42'0 0.0
2016-Jun-10 18:31N 42°26' E 018°42'0 0.0
2016-Jun-10 17:34N 42°26' E 018°42'0 0.0
2016-Jun-10 16:33N 42°26' E 018°42'0 0.0
2016-Jun-10 15:33N 42°26' E 018°42'0 0.0
2016-Jun-10 14:33N 42°26' E 018°42'0 0.0
2016-Jun-10 13:33N 42°26' E 018°42'0 0.0
2016-Jun-10 12:33N 42°26' E 018°42'0 0.0
2016-Jun-10 11:33N 42°26' E 018°42'0 0.0
2016-Jun-10 10:33N 42°26' E 018°42'0 0.0
2016-Jun-10 09:33N 42°26' E 018°42'0 0.0
2016-Jun-10 08:33N 42°26' E 018°42'0 0.0
2016-Jun-10 07:33N 42°26' E 018°42'0 0.0
2016-Jun-09 22:03N 42°26' E 018°42'0 0.0
2016-Jun-09 21:33N 42°26' E 018°42'0 0.0
2016-Jun-09 20:32N 42°26' E 018°42'0 0.0
2016-Jun-09 19:32N 42°26' E 018°42'0 0.0
2016-Jun-09 18:32N 42°26' E 018°42'0 0.0
2016-Jun-09 17:32N 42°26' E 018°42'0 0.0
2016-Jun-09 16:32N 42°26' E 018°42'0 0.0
2016-Jun-09 15:32N 42°26' E 018°42'0 0.0
2016-Jun-09 14:32N 42°26' E 018°42'0 0.0
2016-Jun-09 13:32N 42°26' E 018°42'4 4.0
2016-Jun-09 12:34N 42°26' E 018°36'4 4.3
2016-Jun-09 11:34N 42°21' E 018°37'3 3.3
2016-Jun-09 10:33N 42°22' E 018°42'0 0.0
2016-Jun-09 09:34N 42°22' E 018°42'0 0.0
2016-Jun-09 08:34N 42°22' E 018°42'8 6.7
2016-Jun-09 07:23N 42°26' E 018°32'6 7.5
2016-Jun-09 06:34N 42°26' E 018°41'1 0.6
2016-Jun-09 05:31N 42°26' E 018°42'0 0.0
2016-Jun-09 04:31N 42°26' E 018°42'0 0.0
2016-Jun-09 03:31N 42°26' E 018°42'0 0.0
2016-Jun-09 02:31N 42°26' E 018°42'0 0.0
2016-Jun-09 01:31N 42°26' E 018°42'0 0.0
2016-Jun-09 00:31N 42°26' E 018°42'0 0.0
2016-Jun-08 23:31N 42°26' E 018°42'0 0.0
2016-Jun-08 22:31N 42°26' E 018°42'0 0.0
2016-Jun-08 21:31N 42°26' E 018°42'0 0.0
2016-Jun-08 20:31N 42°26' E 018°42'0 0.0
2016-Jun-08 19:31N 42°26' E 018°42'0 0.0
2016-Jun-08 18:31N 42°26' E 018°42'0 0.0
2016-Jun-08 17:31N 42°26' E 018°42'0 0.0
2016-Jun-08 16:31N 42°26' E 018°42'0 0.0
2016-Jun-08 15:31N 42°26' E 018°42'0 0.0
2016-Jun-08 14:31N 42°26' E 018°42'0 0.0
2016-Jun-08 13:28N 42°26' E 018°42'0 0.0
2016-Jun-08 12:31N 42°26' E 018°42'0 0.0
2016-Jun-08 11:31N 42°26' E 018°42'0 0.0
2016-Jun-08 10:31N 42°26' E 018°42'0 0.0
2016-Jun-08 09:31N 42°26' E 018°42'0 0.0
2016-Jun-08 08:31N 42°26' E 018°42'0 0.0
2016-Jun-08 07:31N 42°26' E 018°42'0 0.0
2016-Jun-08 06:31N 42°26' E 018°42'0 0.0
2016-Jun-07 13:32N 42°26' E 018°42'0 0.0
2016-Jun-07 12:32N 42°26' E 018°42'0 0.0
2016-Jun-07 11:32N 42°26' E 018°42'0 0.0
2016-Jun-07 10:32N 42°26' E 018°42'0 0.0
2016-Jun-07 09:32N 42°26' E 018°42'0 0.1
2016-Jun-07 06:33N 42°26' E 018°41'0 0.0
2016-Jun-07 05:33N 42°26' E 018°41'0 0.0
2016-Jun-07 04:33N 42°26' E 018°41'0 0.0
2016-Jun-07 03:33N 42°26' E 018°41'0 0.0
2016-Jun-07 02:33N 42°26' E 018°41'0 0.0
2016-Jun-07 01:33N 42°26' E 018°41'0 0.0
2016-Jun-07 00:34N 42°26' E 018°41'0 0.0
2016-Jun-06 23:34N 42°26' E 018°41'0 0.0
2016-Jun-06 22:33N 42°26' E 018°41'0 0.0
2016-Jun-06 21:34N 42°26' E 018°41'0 0.0
2016-Jun-06 20:34N 42°26' E 018°41'4 4.2
2016-Jun-06 19:34N 42°26' E 018°36'8 8.2
2016-Jun-06 18:34N 42°18' E 018°33'1313.1
2016-Jun-06 17:34N 42°05' E 018°33'27912.1
2016-Jun-05 18:33N 37°53' E 015°54'1312.7
2016-Jun-05 17:34N 37°57' E 015°39'1312.7
2016-Jun-05 16:34N 38°09' E 015°35'9 9.3
2016-Jun-05 15:33N 38°18' E 015°39'1312.7
2016-Jun-05 14:33N 38°27' E 015°28'1313.2
2016-Jun-05 13:33N 38°37' E 015°16'  
Track history (hours):
 
Tides and Currents Weather Stations Pressure Air Temp Water Temp Dewpoint Dewpoint Depression Visibility Wind Speed Wind Dir Waves Ship Positions

Va Bene

Last reported at 2016-Jun-13 11:33 UTC. Time now 2016-Jun-27 15:05 UTC.
Position N 42°26' E 018°26'.
Warning: this ship's position is 14 days out of date.

Length 50 m; draft 3.6 m.

Type: Pleasure craft. MMSI: 319854000.

Date/timePositionNaut miles runAvg speedWind from/ knotsBaromVisibWave heightAir tempDewpointWater temp
2016-Jun-13 11:33N 42°26' E 018°26'7 7.3
2016-Jun-13 10:33N 42°26' E 018°36'4 3.5
2016-Jun-13 09:33N 42°26' E 018°41'3 3.2
2016-Jun-13 08:33N 42°28' E 018°45'2 0.2
2016-Jun-12 20:33N 42°26' E 018°46'0 0.0
2016-Jun-12 19:33N 42°26' E 018°46'0 0.0
2016-Jun-12 18:33N 42°26' E 018°46'0 0.2
2016-Jun-12 17:31N 42°26' E 018°46'3 0.4
2016-Jun-12 10:22N 42°26' E 018°42'0 0.0
2016-Jun-12 09:31N 42°26' E 018°42'0 0.0
2016-Jun-12 08:31N 42°26' E 018°42'0 0.0
2016-Jun-12 07:31N 42°26' E 018°42'0 0.0
2016-Jun-12 06:31N 42°26' E 018°42'0 0.0
2016-Jun-12 04:34N 42°26' E 018°42'0 0.0
2016-Jun-12 03:31N 42°26' E 018°42'0 0.0
2016-Jun-12 02:31N 42°26' E 018°42'0 0.0
2016-Jun-12 01:31N 42°26' E 018°42'0 0.0
2016-Jun-12 00:31N 42°26' E 018°42'0 0.0
2016-Jun-11 23:31N 42°26' E 018°42'0 0.0
2016-Jun-11 22:31N 42°26' E 018°42'0 0.0
2016-Jun-11 21:31N 42°26' E 018°42'0 0.0
2016-Jun-11 20:31N 42°26' E 018°42'0 0.0
2016-Jun-11 19:34N 42°26' E 018°42'0 0.0
2016-Jun-11 19:01N 42°26' E 018°42'0 0.0
2016-Jun-11 18:31N 42°26' E 018°42'0 0.0
2016-Jun-11 17:31N 42°26' E 018°42'0 0.0
2016-Jun-11 16:31N 42°26' E 018°42'0 0.0
2016-Jun-11 15:31N 42°26' E 018°42'0 0.0
2016-Jun-11 14:31N 42°26' E 018°42'0 0.0
2016-Jun-11 13:34N 42°26' E 018°42'0 0.0
2016-Jun-11 12:31N 42°26' E 018°42'0 0.0
2016-Jun-11 11:31N 42°26' E 018°42'0 0.0
2016-Jun-11 10:31N 42°26' E 018°42'0 0.0
2016-Jun-11 09:31N 42°26' E 018°42'0 0.0
2016-Jun-11 08:31N 42°26' E 018°42'0 0.0
2016-Jun-11 07:31N 42°26' E 018°42'0 0.0
2016-Jun-11 06:31N 42°26' E 018°42'0 0.0
2016-Jun-11 05:34N 42°26' E 018°42'0 0.0
2016-Jun-11 04:31N 42°26' E 018°42'0 0.0
2016-Jun-11 03:31N 42°26' E 018°42'0 0.0
2016-Jun-11 02:31N 42°26' E 018°42'0 0.0
2016-Jun-11 01:31N 42°26' E 018°42'0 0.0
2016-Jun-11 00:28N 42°26' E 018°42'0 0.0
2016-Jun-10 23:34N 42°26' E 018°42'0 0.0
2016-Jun-10 22:31N 42°26' E 018°42'0 0.0
2016-Jun-10 21:31N 42°26' E 018°42'0 0.0
2016-Jun-10 20:31N 42°26' E 018°42'0 0.0
2016-Jun-10 19:31N 42°26' E 018°42'0 0.0
2016-Jun-10 18:31N 42°26' E 018°42'0 0.0
2016-Jun-10 17:34N 42°26' E 018°42'0 0.0
2016-Jun-10 16:33N 42°26' E 018°42'0 0.0
2016-Jun-10 15:33N 42°26' E 018°42'0 0.0
2016-Jun-10 14:33N 42°26' E 018°42'0 0.0
2016-Jun-10 13:33N 42°26' E 018°42'0 0.0
2016-Jun-10 12:33N 42°26' E 018°42'0 0.0
2016-Jun-10 11:33N 42°26' E 018°42'0 0.0
2016-Jun-10 10:33N 42°26' E 018°42'0 0.0
2016-Jun-10 09:33N 42°26' E 018°42'0 0.0
2016-Jun-10 08:33N 42°26' E 018°42'0 0.0
2016-Jun-10 07:33N 42°26' E 018°42'0 0.0
2016-Jun-09 22:03N 42°26' E 018°42'0 0.0
2016-Jun-09 21:33N 42°26' E 018°42'0 0.0
2016-Jun-09 20:32N 42°26' E 018°42'0 0.0
2016-Jun-09 19:32N 42°26' E 018°42'0 0.0
2016-Jun-09 18:32N 42°26' E 018°42'0 0.0
2016-Jun-09 17:32N 42°26' E 018°42'0 0.0
2016-Jun-09 16:32N 42°26' E 018°42'0 0.0
2016-Jun-09 15:32N 42°26' E 018°42'0 0.0
2016-Jun-09 14:32N 42°26' E 018°42'0 0.0
2016-Jun-09 13:32N 42°26' E 018°42'4 4.0
2016-Jun-09 12:34N 42°26' E 018°36'4 4.3
2016-Jun-09 11:34N 42°21' E 018°37'3 3.3
2016-Jun-09 10:33N 42°22' E 018°42'0 0.0
2016-Jun-09 09:34N 42°22' E 018°42'0 0.0
2016-Jun-09 08:34N 42°22' E 018°42'8 6.7
2016-Jun-09 07:23N 42°26' E 018°32'6 7.5
2016-Jun-09 06:34N 42°26' E 018°41'1 0.6
2016-Jun-09 05:31N 42°26' E 018°42'0 0.0
2016-Jun-09 04:31N 42°26' E 018°42'0 0.0
2016-Jun-09 03:31N 42°26' E 018°42'0 0.0
2016-Jun-09 02:31N 42°26' E 018°42'0 0.0
2016-Jun-09 01:31N 42°26' E 018°42'0 0.0
2016-Jun-09 00:31N 42°26' E 018°42'0 0.0
2016-Jun-08 23:31N 42°26' E 018°42'0 0.0
2016-Jun-08 22:31N 42°26' E 018°42'0 0.0
2016-Jun-08 21:31N 42°26' E 018°42'0 0.0
2016-Jun-08 20:31N 42°26' E 018°42'0 0.0
2016-Jun-08 19:31N 42°26' E 018°42'0 0.0
2016-Jun-08 18:31N 42°26' E 018°42'0 0.0
2016-Jun-08 17:31N 42°26' E 018°42'0 0.0
2016-Jun-08 16:31N 42°26' E 018°42'0 0.0
2016-Jun-08 15:31N 42°26' E 018°42'0 0.0
2016-Jun-08 14:31N 42°26' E 018°42'0 0.0
2016-Jun-08 13:28N 42°26' E 018°42'0 0.0
2016-Jun-08 12:31N 42°26' E 018°42'0 0.0
2016-Jun-08 11:31N 42°26' E 018°42'0 0.0
2016-Jun-08 10:31N 42°26' E 018°42'0 0.0
2016-Jun-08 09:31N 42°26' E 018°42'0 0.0
2016-Jun-08 08:31N 42°26' E 018°42'0 0.0
2016-Jun-08 07:31N 42°26' E 018°42'0 0.0
2016-Jun-08 06:31N 42°26' E 018°42'0 0.0
2016-Jun-07 13:32N 42°26' E 018°42'0 0.0
2016-Jun-07 12:32N 42°26' E 018°42'0 0.0
2016-Jun-07 11:32N 42°26' E 018°42'0 0.0
2016-Jun-07 10:32N 42°26' E 018°42'0 0.0
2016-Jun-07 09:32N 42°26' E 018°42'0 0.1
2016-Jun-07 06:33N 42°26' E 018°41'0 0.0
2016-Jun-07 05:33N 42°26' E 018°41'0 0.0
2016-Jun-07 04:33N 42°26' E 018°41'0 0.0
2016-Jun-07 03:33N 42°26' E 018°41'0 0.0
2016-Jun-07 02:33N 42°26' E 018°41'0 0.0
2016-Jun-07 01:33N 42°26' E 018°41'0 0.0
2016-Jun-07 00:34N 42°26' E 018°41'0 0.0
2016-Jun-06 23:34N 42°26' E 018°41'0 0.0
2016-Jun-06 22:33N 42°26' E 018°41'0 0.0
2016-Jun-06 21:34N 42°26' E 018°41'0 0.0
2016-Jun-06 20:34N 42°26' E 018°41'4 4.2
2016-Jun-06 19:34N 42°26' E 018°36'8 8.2
2016-Jun-06 18:34N 42°18' E 018°33'1313.1
2016-Jun-06 17:34N 42°05' E 018°33'27912.1
2016-Jun-05 18:33N 37°53' E 015°54'1312.7
2016-Jun-05 17:34N 37°57' E 015°39'1312.7
2016-Jun-05 16:34N 38°09' E 015°35'9 9.3
2016-Jun-05 15:33N 38°18' E 015°39'1312.7
2016-Jun-05 14:33N 38°27' E 015°28'1313.2
2016-Jun-05 13:33N 38°37' E 015°16'  

Dump ship's entire track history